createdAt,value
2018-07-04T00:00:38.578Z,1005.31
2018-07-04T00:01:38.636Z,1005.30
2018-07-04T00:02:38.698Z,1005.30
2018-07-04T00:03:38.760Z,1005.32
2018-07-04T00:04:38.820Z,1005.33
2018-07-04T00:05:38.881Z,1005.32
2018-07-04T00:06:38.943Z,1005.33
2018-07-04T00:07:39.006Z,1005.29
2018-07-04T00:08:39.067Z,1005.30
2018-07-04T00:09:39.128Z,1005.34
2018-07-04T00:10:39.191Z,1005.32
2018-07-04T00:11:39.252Z,1005.34
2018-07-04T00:12:39.311Z,1005.35
2018-07-04T00:13:39.373Z,1005.29
2018-07-04T00:14:39.434Z,1005.31
2018-07-04T00:15:39.496Z,1005.29
2018-07-04T00:16:39.559Z,1005.31
2018-07-04T00:17:39.618Z,1005.34
2018-07-04T00:18:39.680Z,1005.31
2018-07-04T00:19:39.742Z,1005.27
2018-07-04T00:20:39.806Z,1005.27
2018-07-04T00:21:39.865Z,1005.23
2018-07-04T00:22:39.926Z,1005.26
2018-07-04T00:23:39.990Z,1005.25
2018-07-04T00:24:40.049Z,1005.25
2018-07-04T00:25:40.121Z,1005.27
2018-07-04T00:26:40.171Z,1005.27
2018-07-04T00:27:40.233Z,1005.23
2018-07-04T00:28:40.292Z,1005.25
2018-07-04T00:29:40.354Z,1005.24
2018-07-04T00:30:40.420Z,1005.20
2018-07-04T00:31:40.477Z,1005.17
2018-07-04T00:32:40.538Z,1005.14
2018-07-04T00:33:40.600Z,1005.16
2018-07-04T00:34:40.660Z,1005.17
2018-07-04T00:35:40.721Z,1005.16
2018-07-04T00:36:40.783Z,1005.15
2018-07-04T00:37:40.843Z,1005.16
2018-07-04T00:38:40.905Z,1005.13
2018-07-04T00:39:40.965Z,1005.17
2018-07-04T00:40:41.028Z,1005.07
2018-07-04T00:41:41.088Z,1005.14
2018-07-04T00:42:41.149Z,1005.13
2018-07-04T00:43:41.210Z,1005.14
2018-07-04T00:44:41.271Z,1005.17
2018-07-04T00:45:41.333Z,1005.18
2018-07-04T00:46:41.395Z,1005.19
2018-07-04T00:47:41.455Z,1005.18
2018-07-04T00:48:41.516Z,1005.19
2018-07-04T00:49:41.577Z,1005.17
2018-07-04T00:50:41.638Z,1005.24
2018-07-04T00:51:41.699Z,1005.27
2018-07-04T00:52:41.759Z,1005.28
2018-07-04T00:53:41.820Z,1005.26
2018-07-04T00:54:41.885Z,1005.26
2018-07-04T00:55:41.945Z,1005.28
2018-07-04T00:56:42.254Z,1005.26
2018-07-04T00:57:42.066Z,1005.28
2018-07-04T00:58:42.126Z,1005.29
2018-07-04T00:59:42.732Z,1005.28
2018-07-04T01:00:42.247Z,1005.26
2018-07-04T01:01:42.309Z,1005.30
2018-07-04T01:02:42.370Z,1005.27
2018-07-04T01:03:42.434Z,1005.29
2018-07-04T01:04:42.491Z,1005.29
2018-07-04T01:05:42.552Z,1005.33
2018-07-04T01:06:42.614Z,1005.32
2018-07-04T01:07:42.677Z,1005.37
2018-07-04T01:08:42.734Z,1005.35
2018-07-04T01:09:42.797Z,1005.35
2018-07-04T01:10:42.858Z,1005.33
2018-07-04T01:11:42.917Z,1005.32
2018-07-04T01:12:43.037Z,1005.34
2018-07-04T01:13:43.039Z,1005.35
2018-07-04T01:14:43.100Z,1005.33
2018-07-04T01:15:43.160Z,1005.34
2018-07-04T01:16:43.221Z,1005.37
2018-07-04T01:17:43.532Z,1005.35
2018-07-04T01:18:43.343Z,1005.35
2018-07-04T01:19:43.404Z,1005.35
2018-07-04T01:20:43.466Z,1005.35
2018-07-04T01:21:43.525Z,1005.33
2018-07-04T01:22:43.585Z,1005.33
2018-07-04T01:23:43.647Z,1005.32
2018-07-04T01:24:43.707Z,1005.32
2018-07-04T01:25:43.770Z,1005.32
2018-07-04T01:26:43.835Z,1005.32
2018-07-04T01:27:43.890Z,1005.29
2018-07-04T01:28:43.951Z,1005.27
2018-07-04T01:29:44.010Z,1005.27
2018-07-04T01:30:44.072Z,1005.30
2018-07-04T01:31:44.133Z,1005.33
2018-07-04T01:32:44.193Z,1005.34
2018-07-04T01:33:44.253Z,1005.31
2018-07-04T01:34:44.315Z,1005.33
2018-07-04T01:35:44.378Z,1005.38
2018-07-04T01:36:44.436Z,1005.37
2018-07-04T01:37:44.498Z,1005.34
2018-07-04T01:38:44.558Z,1005.33
2018-07-04T01:39:44.618Z,1005.31
2018-07-04T01:40:44.678Z,1005.28
2018-07-04T01:41:44.739Z,1005.24
2018-07-04T01:42:44.815Z,1005.29
2018-07-04T01:43:44.861Z,1005.26
2018-07-04T01:44:44.920Z,1005.27
2018-07-04T01:45:44.982Z,1005.23
2018-07-04T01:46:45.042Z,1005.25
2018-07-04T01:47:45.103Z,1005.28
2018-07-04T01:48:45.163Z,1005.26
2018-07-04T01:49:45.224Z,1005.23
2018-07-04T01:50:45.285Z,1005.22
2018-07-04T01:51:45.345Z,1005.26
2018-07-04T01:52:45.405Z,1005.21
2018-07-04T01:53:45.467Z,1005.25
2018-07-04T01:54:45.528Z,1005.25
2018-07-04T01:55:45.588Z,1005.26
2018-07-04T01:56:45.649Z,1005.25
2018-07-04T01:57:45.709Z,1005.24
2018-07-04T01:58:45.772Z,1005.22
2018-07-04T01:59:45.829Z,1005.24
2018-07-04T02:00:45.890Z,1005.21
2018-07-04T02:01:45.951Z,1005.23
2018-07-04T02:02:46.015Z,1005.18
2018-07-04T02:03:46.073Z,1005.23
2018-07-04T02:04:46.132Z,1005.19
2018-07-04T02:05:46.192Z,1005.18
2018-07-04T02:06:46.253Z,1005.18
2018-07-04T02:07:46.314Z,1005.20
2018-07-04T02:08:46.374Z,1005.14
2018-07-04T02:09:46.435Z,1005.17
2018-07-04T02:10:46.496Z,1005.21
2018-07-04T02:11:46.556Z,1005.20
2018-07-04T02:12:46.618Z,1005.20
2018-07-04T02:13:46.676Z,1005.18
2018-07-04T02:14:46.738Z,1005.20
2018-07-04T02:15:46.797Z,1005.15
2018-07-04T02:16:46.858Z,1005.19
2018-07-04T02:17:46.919Z,1005.15
2018-07-04T02:18:46.979Z,1005.15
2018-07-04T02:19:47.039Z,1005.18
2018-07-04T02:20:47.098Z,1005.12
2018-07-04T02:21:47.165Z,1005.17
2018-07-04T02:22:47.220Z,1005.15
2018-07-04T02:23:47.280Z,1005.16
2018-07-04T02:24:47.340Z,1005.12
2018-07-04T02:25:47.400Z,1005.14
2018-07-04T02:26:47.462Z,1005.13
2018-07-04T02:27:47.522Z,1005.12
2018-07-04T02:32:05.874Z,1005.12
2018-07-04T02:33:05.931Z,1005.14
2018-07-04T02:34:05.993Z,1005.18
2018-07-04T02:35:06.053Z,1005.17
2018-07-04T02:36:06.122Z,1005.17
2018-07-04T02:38:18.698Z,1005.17
2018-07-04T02:39:18.757Z,1005.12
2018-07-04T02:40:21.443Z,1005.14
2018-07-04T02:41:18.879Z,1005.11
2018-07-04T02:42:18.941Z,1005.13
2018-07-04T02:44:16.482Z,1005.14
2018-07-04T02:45:16.542Z,1005.11
2018-07-04T02:47:04.056Z,1005.09
2018-07-04T02:48:04.115Z,1005.09
2018-07-04T02:49:04.175Z,1005.10
2018-07-04T02:50:04.235Z,1005.09
2018-07-04T02:51:04.295Z,1005.10
2018-07-04T02:52:04.356Z,1005.08
2018-07-04T02:53:04.419Z,1005.13
2018-07-04T02:54:04.476Z,1005.16
2018-07-04T02:55:04.536Z,1005.13
2018-07-04T02:56:04.596Z,1005.16
2018-07-04T02:57:04.657Z,1005.16
2018-07-04T02:58:04.716Z,1005.14
2018-07-04T02:59:04.776Z,1005.15
2018-07-04T03:00:04.843Z,1005.12
2018-07-04T03:01:04.947Z,1005.15
2018-07-04T03:02:04.957Z,1005.18
2018-07-04T03:03:05.017Z,1005.18
2018-07-04T03:04:05.078Z,1005.21
2018-07-04T03:05:05.138Z,1005.19
2018-07-04T03:06:05.200Z,1005.20
2018-07-04T03:07:05.260Z,1005.18
2018-07-04T03:08:05.322Z,1005.18
2018-07-04T03:09:05.379Z,1005.20
2018-07-04T03:10:05.437Z,1005.17
2018-07-04T03:11:05.498Z,1005.21
2018-07-04T03:12:05.559Z,1005.20
2018-07-04T03:13:05.618Z,1005.22
2018-07-04T03:14:05.677Z,1005.23
2018-07-04T03:15:05.738Z,1005.22
2018-07-04T03:16:05.798Z,1005.29
2018-07-04T03:17:07.814Z,1005.22
2018-07-04T03:18:05.918Z,1005.18
2018-07-04T03:19:05.978Z,1005.18
2018-07-04T03:20:06.042Z,1005.16
2018-07-04T03:21:06.098Z,1005.16
2018-07-04T03:22:06.158Z,1005.15
2018-07-04T03:23:06.220Z,1005.17
2018-07-04T03:24:06.279Z,1005.20
2018-07-04T03:25:06.340Z,1005.18
2018-07-04T03:26:06.401Z,1005.22
2018-07-04T03:27:06.459Z,1005.23
2018-07-04T03:28:06.518Z,1005.23
2018-07-04T03:29:06.578Z,1005.22
2018-07-04T03:30:06.639Z,1005.22
2018-07-04T03:31:06.701Z,1005.23
2018-07-04T03:32:06.765Z,1005.24
2018-07-04T03:33:06.850Z,1005.22
2018-07-04T03:34:06.878Z,1005.23
2018-07-04T03:35:06.940Z,1005.26
2018-07-04T03:36:07.000Z,1005.24
2018-07-04T03:37:07.311Z,1005.24
2018-07-04T03:38:07.119Z,1005.21
2018-07-04T03:39:07.179Z,1005.21
2018-07-04T03:40:07.238Z,1005.18
2018-07-04T03:41:07.299Z,1005.19
2018-07-04T03:42:07.362Z,1005.18
2018-07-04T03:43:07.420Z,1005.17
2018-07-04T03:44:07.480Z,1005.17
2018-07-04T03:45:07.540Z,1005.19
2018-07-04T03:46:07.600Z,1005.22
2018-07-04T03:47:07.659Z,1005.21
2018-07-04T03:48:07.719Z,1005.18
2018-07-04T03:49:07.780Z,1005.15
2018-07-04T03:50:07.839Z,1005.17
2018-07-04T03:51:07.900Z,1005.17
2018-07-04T03:52:07.961Z,1005.18
2018-07-04T03:53:08.020Z,1005.20
2018-07-04T03:54:08.080Z,1005.23
2018-07-04T03:55:08.139Z,1005.23
2018-07-04T03:56:08.201Z,1005.26
2018-07-04T03:57:08.258Z,1005.28
2018-07-04T03:58:08.582Z,1005.26
2018-07-04T03:59:08.379Z,1005.31
2018-07-04T04:00:08.442Z,1005.31
2018-07-04T04:01:08.498Z,1005.31
2018-07-04T04:02:08.558Z,1005.25
2018-07-04T04:03:08.770Z,1005.32
2018-07-04T04:04:08.682Z,1005.25
2018-07-04T04:05:08.738Z,1005.24
2018-07-04T04:06:08.799Z,1005.30
2018-07-04T04:07:08.859Z,1005.27
2018-07-04T04:08:08.919Z,1005.32
2018-07-04T04:09:08.981Z,1005.32
2018-07-04T04:10:09.041Z,1005.29
2018-07-04T04:11:09.098Z,1005.30
2018-07-04T04:12:09.162Z,1005.33
2018-07-04T04:13:09.227Z,1005.35
2018-07-04T04:14:09.278Z,1005.37
2018-07-04T04:15:09.341Z,1005.37
2018-07-04T04:16:09.398Z,1005.40
2018-07-04T04:17:09.459Z,1005.39
2018-07-04T04:18:09.518Z,1005.35
2018-07-04T04:19:09.581Z,1005.40
2018-07-04T04:20:09.639Z,1005.40
2018-07-04T04:21:09.699Z,1005.39
2018-07-04T04:22:09.760Z,1005.37
2018-07-04T04:23:09.819Z,1005.35
2018-07-04T04:24:09.879Z,1005.31
2018-07-04T04:25:09.939Z,1005.32
2018-07-04T04:26:09.999Z,1005.30
2018-07-04T04:27:10.110Z,1005.29
2018-07-04T04:28:10.120Z,1005.32
2018-07-04T04:29:10.179Z,1005.27
2018-07-04T04:30:10.247Z,1005.29
2018-07-04T04:31:10.299Z,1005.30
2018-07-04T04:32:10.360Z,1005.30
2018-07-04T04:33:10.419Z,1005.32
2018-07-04T04:34:10.483Z,1005.35
2018-07-04T04:35:10.540Z,1005.37
2018-07-04T04:36:10.601Z,1005.35
2018-07-04T04:37:10.659Z,1005.31
2018-07-04T04:38:10.719Z,1005.37
2018-07-04T04:39:10.780Z,1005.32
2018-07-04T04:40:10.841Z,1005.32
2018-07-04T04:41:10.900Z,1005.34
2018-07-04T04:42:10.960Z,1005.37
2018-07-04T04:43:11.021Z,1005.36
2018-07-04T04:44:11.081Z,1005.44
2018-07-04T04:45:11.140Z,1005.43
2018-07-04T04:46:11.204Z,1005.44
2018-07-04T04:47:11.261Z,1005.41
2018-07-04T04:48:11.322Z,1005.42
2018-07-04T04:49:11.382Z,1005.41
2018-07-04T04:50:11.442Z,1005.39
2018-07-04T04:51:11.502Z,1005.37
2018-07-04T04:52:11.563Z,1005.39
2018-07-04T04:53:11.623Z,1005.36
2018-07-04T04:54:11.685Z,1005.36
2018-07-04T04:55:11.743Z,1005.39
2018-07-04T04:56:11.803Z,1005.41
2018-07-04T04:57:11.864Z,1005.38
2018-07-04T04:58:11.924Z,1005.38
2018-07-04T04:59:11.985Z,1005.40
2018-07-04T05:00:12.044Z,1005.42
2018-07-04T05:01:12.104Z,1005.38
2018-07-04T05:02:12.165Z,1005.39
2018-07-04T05:03:12.226Z,1005.38
2018-07-04T05:04:12.286Z,1005.37
2018-07-04T05:05:12.346Z,1005.33
2018-07-04T05:06:12.405Z,1005.38
2018-07-04T05:07:12.470Z,1005.39
2018-07-04T05:08:12.528Z,1005.33
2018-07-04T05:09:12.588Z,1005.30
2018-07-04T05:10:12.651Z,1005.34
2018-07-04T05:11:12.709Z,1005.33
2018-07-04T05:12:12.770Z,1005.36
2018-07-04T05:13:12.830Z,1005.30
2018-07-04T05:14:12.890Z,1005.31
2018-07-04T05:15:12.952Z,1005.33
2018-07-04T05:16:13.014Z,1005.31
2018-07-04T05:17:13.073Z,1005.33
2018-07-04T05:18:13.133Z,1005.30
2018-07-04T05:19:13.192Z,1005.34
2018-07-04T05:20:13.256Z,1005.32
2018-07-04T05:21:13.314Z,1005.30
2018-07-04T05:22:13.376Z,1005.30
2018-07-04T05:23:13.437Z,1005.26
2018-07-04T05:24:13.497Z,1005.28
2018-07-04T05:25:13.561Z,1005.25
2018-07-04T05:26:13.616Z,1005.23
2018-07-04T05:27:13.680Z,1005.26
2018-07-04T05:28:13.749Z,1005.20
2018-07-04T05:29:13.799Z,1005.19
2018-07-04T05:30:13.860Z,1005.21
2018-07-04T05:31:13.921Z,1005.16
2018-07-04T05:32:13.981Z,1005.19
2018-07-04T05:33:14.043Z,1005.18
2018-07-04T05:34:14.103Z,1005.22
2018-07-04T05:35:14.247Z,1005.26
2018-07-04T05:36:14.226Z,1005.25
2018-07-04T05:37:14.284Z,1005.26
2018-07-04T05:38:14.346Z,1005.28
2018-07-04T05:39:14.406Z,1005.27
2018-07-04T05:40:14.472Z,1005.28
2018-07-04T05:41:14.679Z,1005.25
2018-07-04T05:42:14.590Z,1005.25
2018-07-04T05:43:14.650Z,1005.27
2018-07-04T05:44:14.715Z,1005.30
2018-07-04T05:45:14.772Z,1005.30
2018-07-04T05:46:14.834Z,1005.30
2018-07-04T05:47:14.895Z,1005.32
2018-07-04T05:48:14.960Z,1005.31
2018-07-04T05:49:15.017Z,1005.33
2018-07-04T05:50:15.080Z,1005.30
2018-07-04T05:51:15.139Z,1005.34
2018-07-04T05:52:15.201Z,1005.30
2018-07-04T05:53:15.261Z,1005.28
2018-07-04T05:54:15.324Z,1005.26
2018-07-04T05:55:15.385Z,1005.30
2018-07-04T05:56:15.495Z,1005.30
2018-07-04T05:57:15.507Z,1005.29
2018-07-04T05:58:15.593Z,1005.29
2018-07-04T05:59:15.634Z,1005.31
2018-07-04T06:00:15.695Z,1005.30
2018-07-04T06:01:15.753Z,1005.29
2018-07-04T06:02:15.816Z,1005.32
2018-07-04T06:03:15.877Z,1005.26
2018-07-04T06:04:15.948Z,1005.29
2018-07-04T06:05:15.999Z,1005.28
2018-07-04T06:06:16.063Z,1005.28
2018-07-04T06:07:16.125Z,1005.28
2018-07-04T06:08:16.187Z,1005.24
2018-07-04T06:09:16.248Z,1005.28
2018-07-04T06:10:16.311Z,1005.24
2018-07-04T06:11:16.374Z,1005.26
2018-07-04T06:12:16.434Z,1005.23
2018-07-04T06:13:16.498Z,1005.24
2018-07-04T06:14:16.560Z,1005.20
2018-07-04T06:15:16.622Z,1005.20
2018-07-04T06:16:16.690Z,1005.16
2018-07-04T06:17:16.747Z,1005.16
2018-07-04T06:18:16.810Z,1005.16
2018-07-04T06:19:16.872Z,1005.17
2018-07-04T06:20:16.935Z,1005.15
2018-07-04T06:21:16.998Z,1005.17
2018-07-04T06:22:17.059Z,1005.16
2018-07-04T06:23:17.124Z,1005.14
2018-07-04T06:24:17.185Z,1005.11
2018-07-04T06:25:17.250Z,1005.11
2018-07-04T06:26:17.310Z,1005.10
2018-07-04T06:27:17.374Z,1005.10
2018-07-04T06:28:17.436Z,1005.11
2018-07-04T06:29:17.500Z,1005.10
2018-07-04T06:30:17.563Z,1005.08
2018-07-04T06:31:17.625Z,1005.12
2018-07-04T06:32:17.696Z,1005.13
2018-07-04T06:33:17.752Z,1005.16
2018-07-04T06:34:17.814Z,1005.14
2018-07-04T06:35:17.877Z,1005.16
2018-07-04T06:36:17.941Z,1005.18
2018-07-04T06:37:18.005Z,1005.14
2018-07-04T06:38:18.217Z,1005.15
2018-07-04T06:39:18.131Z,1005.17
2018-07-04T06:40:18.196Z,1005.11
2018-07-04T06:41:18.261Z,1005.11
2018-07-04T06:42:18.323Z,1005.12
2018-07-04T06:43:18.384Z,1005.08
2018-07-04T06:44:18.450Z,1005.08
2018-07-04T06:45:18.513Z,1005.08
2018-07-04T06:46:18.576Z,1005.10
2018-07-04T06:47:18.643Z,1005.09
2018-07-04T06:48:18.704Z,1005.10
2018-07-04T06:49:18.798Z,1005.10
2018-07-04T06:50:18.831Z,1005.07
2018-07-04T06:51:18.896Z,1005.06
2018-07-04T06:52:18.962Z,1005.06
2018-07-04T06:53:19.026Z,1005.02
2018-07-04T06:54:19.124Z,1005.03
2018-07-04T06:55:19.157Z,1005.05
2018-07-04T06:56:19.232Z,1005.01
2018-07-04T06:57:19.284Z,1005.00
2018-07-04T06:58:19.346Z,1005.02
2018-07-04T06:59:19.411Z,1005.01
2018-07-04T07:00:19.477Z,1005.01
2018-07-04T07:01:19.540Z,1005.01
2018-07-04T07:02:19.608Z,1005.02
2018-07-04T07:03:19.669Z,1005.00
2018-07-04T07:04:19.734Z,1005.00
2018-07-04T07:05:19.797Z,1005.00
2018-07-04T07:06:19.862Z,1004.98
2018-07-04T07:07:19.927Z,1005.03
2018-07-04T07:08:20.060Z,1005.02
2018-07-04T07:09:20.055Z,1005.04
2018-07-04T07:10:20.120Z,1005.04
2018-07-04T07:11:20.185Z,1005.03
2018-07-04T07:12:20.250Z,1005.05
2018-07-04T07:13:20.316Z,1005.04
2018-07-04T07:14:20.432Z,1005.03
2018-07-04T07:15:20.448Z,1005.05
2018-07-04T07:16:20.506Z,1005.05
2018-07-04T07:17:20.570Z,1005.05
2018-07-04T07:18:20.635Z,1005.04
2018-07-04T07:19:20.698Z,1004.98
2018-07-04T07:20:20.767Z,1004.98
2018-07-04T07:21:20.828Z,1004.98
2018-07-04T07:22:20.894Z,1004.98
2018-07-04T07:23:20.956Z,1004.99
2018-07-04T07:24:21.022Z,1004.98
2018-07-04T07:25:21.083Z,1005.00
2018-07-04T07:26:21.149Z,1004.98
2018-07-04T07:27:21.213Z,1005.02
2018-07-04T07:28:21.279Z,1005.03
2018-07-04T07:29:21.340Z,1005.02
2018-07-04T07:30:21.406Z,1005.02
2018-07-04T07:31:21.470Z,1005.05
2018-07-04T07:32:21.535Z,1005.04
2018-07-04T07:33:21.599Z,1005.01
2018-07-04T07:34:21.838Z,1005.01
2018-07-04T07:35:21.728Z,1005.01
2018-07-04T07:36:21.792Z,1005.04
2018-07-04T07:37:21.857Z,1005.02
2018-07-04T07:38:21.921Z,1005.03
2018-07-04T07:39:21.985Z,1005.03
2018-07-04T07:40:22.049Z,1005.05
2018-07-04T07:41:22.114Z,1005.01
2018-07-04T07:42:22.180Z,1005.07
2018-07-04T07:43:22.244Z,1005.04
2018-07-04T07:44:22.307Z,1005.03
2018-07-04T07:45:22.371Z,1005.01
2018-07-04T07:46:22.436Z,1005.00
2018-07-04T07:47:22.505Z,1004.97
2018-07-04T07:48:22.566Z,1005.02
2018-07-04T07:49:22.629Z,1004.97
2018-07-04T07:50:22.694Z,1005.01
2018-07-04T07:51:22.762Z,1005.01
2018-07-04T07:52:22.824Z,1004.98
2018-07-04T07:53:22.892Z,1005.04
2018-07-04T07:54:23.008Z,1005.02
2018-07-04T07:55:23.018Z,1005.03
2018-07-04T07:56:23.085Z,1005.06
2018-07-04T07:57:23.149Z,1005.05
2018-07-04T07:58:23.213Z,1005.07
2018-07-04T07:59:23.280Z,1005.07
2018-07-04T08:00:23.344Z,1005.04
2018-07-04T08:01:23.412Z,1005.03
2018-07-04T08:02:23.475Z,1005.03
2018-07-04T08:03:23.540Z,1005.04
2018-07-04T08:04:23.606Z,1005.02
2018-07-04T08:05:23.673Z,1005.03
2018-07-04T08:06:23.739Z,1004.97
2018-07-04T08:07:23.803Z,1005.00
2018-07-04T08:08:23.870Z,1004.97
2018-07-04T08:09:23.933Z,1004.96
2018-07-04T08:10:24.000Z,1004.93
2018-07-04T08:11:24.067Z,1004.97
2018-07-04T08:12:24.132Z,1004.97
2018-07-04T08:13:24.197Z,1004.94
2018-07-04T08:14:24.267Z,1004.91
2018-07-04T08:15:24.330Z,1004.94
2018-07-04T08:16:24.397Z,1004.94
2018-07-04T08:17:24.463Z,1004.97
2018-07-04T08:18:24.526Z,1004.92
2018-07-04T08:19:24.594Z,1004.96
2018-07-04T08:20:24.661Z,1004.96
2018-07-04T08:21:24.726Z,1004.94
2018-07-04T08:22:24.791Z,1004.95
2018-07-04T08:23:24.859Z,1005.00
2018-07-04T08:24:24.925Z,1005.00
2018-07-04T08:25:24.989Z,1005.00
2018-07-04T08:26:25.138Z,1004.97
2018-07-04T08:27:25.120Z,1004.97
2018-07-04T08:28:25.188Z,1004.94
2018-07-04T08:29:25.252Z,1004.98
2018-07-04T08:30:25.318Z,1004.97
2018-07-04T08:31:25.383Z,1004.97
2018-07-04T08:32:25.451Z,1004.97
2018-07-04T08:33:25.522Z,1005.01
2018-07-04T08:34:25.581Z,1004.97
2018-07-04T08:35:25.651Z,1004.99
2018-07-04T08:36:25.717Z,1004.97
2018-07-04T08:37:25.778Z,1004.93
2018-07-04T08:38:25.846Z,1004.95
2018-07-04T08:39:25.912Z,1004.94
2018-07-04T08:40:25.982Z,1004.93
2018-07-04T08:41:26.045Z,1004.88
2018-07-04T08:42:26.110Z,1004.81
2018-07-04T08:43:26.178Z,1004.81
2018-07-04T08:44:26.244Z,1004.74
2018-07-04T08:45:26.311Z,1004.80
2018-07-04T08:46:26.377Z,1004.80
2018-07-04T08:47:26.444Z,1004.77
2018-07-04T08:48:26.511Z,1004.77
2018-07-04T08:49:26.579Z,1004.78
2018-07-04T08:50:26.643Z,1004.82
2018-07-04T08:51:26.710Z,1004.84
2018-07-04T08:52:26.782Z,1004.83
2018-07-04T08:53:26.842Z,1004.79
2018-07-04T08:54:26.908Z,1004.79
2018-07-04T08:55:26.976Z,1004.80
2018-07-04T08:56:27.045Z,1004.82
2018-07-04T08:57:27.109Z,1004.83
2018-07-04T08:58:27.269Z,1004.88
2018-07-04T08:59:27.243Z,1004.89
2018-07-04T09:00:27.311Z,1004.90
2018-07-04T09:01:27.378Z,1004.91
2018-07-04T09:02:27.446Z,1004.95
2018-07-04T09:03:27.513Z,1005.01
2018-07-04T09:04:27.579Z,1004.97
2018-07-04T09:05:27.665Z,1005.01
2018-07-04T09:06:27.713Z,1005.06
2018-07-04T09:07:27.781Z,1005.03
2018-07-04T09:08:27.848Z,1005.05
2018-07-04T09:09:27.914Z,1005.10
2018-07-04T09:10:27.983Z,1005.10
2018-07-04T09:11:28.104Z,1005.13
2018-07-04T09:12:28.118Z,1005.09
2018-07-04T09:13:28.190Z,1005.08
2018-07-04T09:14:28.252Z,1005.11
2018-07-04T09:15:28.320Z,1005.13
2018-07-04T09:16:28.390Z,1005.09
2018-07-04T09:17:28.457Z,1005.12
2018-07-04T09:18:28.522Z,1005.11
2018-07-04T09:19:28.591Z,1005.09
2018-07-04T09:20:28.657Z,1005.12
2018-07-04T09:21:28.726Z,1005.12
2018-07-04T09:22:28.792Z,1005.15
2018-07-04T09:23:28.859Z,1005.10
2018-07-04T09:24:28.938Z,1005.09
2018-07-04T09:25:28.995Z,1005.10
2018-07-04T09:26:29.062Z,1005.09
2018-07-04T09:27:29.128Z,1005.07
2018-07-04T09:28:29.197Z,1005.12
2018-07-04T09:29:29.560Z,1005.08
2018-07-04T09:30:29.329Z,1005.09
2018-07-04T09:31:29.397Z,1005.11
2018-07-04T09:32:29.464Z,1005.10
2018-07-04T09:33:29.530Z,1005.09
2018-07-04T09:34:29.604Z,1005.12
2018-07-04T09:35:29.665Z,1005.10
2018-07-04T09:36:29.731Z,1005.10
2018-07-04T09:37:29.798Z,1005.08
2018-07-04T09:38:30.012Z,1005.11
2018-07-04T09:39:29.932Z,1005.11
2018-07-04T09:40:29.999Z,1005.12
2018-07-04T09:41:30.067Z,1005.13
2018-07-04T09:42:30.133Z,1005.14
2018-07-04T09:43:30.200Z,1005.14
2018-07-04T09:44:30.266Z,1005.11
2018-07-04T09:45:30.333Z,1005.17
2018-07-04T09:46:30.404Z,1005.14
2018-07-04T09:47:30.468Z,1005.13
2018-07-04T09:48:30.537Z,1005.14
2018-07-04T09:49:30.637Z,1005.18
2018-07-04T09:50:30.671Z,1005.15
2018-07-04T09:51:30.740Z,1005.17
2018-07-04T09:52:30.805Z,1005.15
2018-07-04T09:53:30.870Z,1005.15
2018-07-04T09:54:30.940Z,1005.16
2018-07-04T09:55:31.005Z,1005.16
2018-07-04T09:56:31.075Z,1005.12
2018-07-04T09:57:31.140Z,1005.08
2018-07-04T09:58:31.207Z,1005.11
2018-07-04T09:59:31.275Z,1005.11
2018-07-04T10:00:31.344Z,1005.11
2018-07-04T10:01:31.411Z,1005.10
2018-07-04T10:02:31.478Z,1005.12
2018-07-04T10:03:31.550Z,1005.12
2018-07-04T10:04:31.618Z,1005.11
2018-07-04T10:05:31.682Z,1005.06
2018-07-04T10:06:31.750Z,1005.02
2018-07-04T10:07:31.817Z,1004.97
2018-07-04T10:08:31.885Z,1004.90
2018-07-04T10:09:31.955Z,1005.02
2018-07-04T10:10:32.024Z,1004.94
2018-07-04T10:11:32.243Z,1005.12
2018-07-04T10:12:32.488Z,1004.98
2018-07-04T10:13:32.732Z,1004.97
2018-07-04T10:14:32.901Z,1005.18
2018-07-04T10:15:33.063Z,1005.16
2018-07-04T10:16:32.434Z,1005.18
2018-07-04T10:17:32.503Z,1005.12
2018-07-04T10:18:32.573Z,1005.11
2018-07-04T10:19:32.643Z,1005.16
2018-07-04T10:20:32.712Z,1005.18
2018-07-04T10:21:32.782Z,1005.17
2018-07-04T10:22:32.853Z,1005.18
2018-07-04T10:24:33.028Z,1005.05
2018-07-04T10:25:33.070Z,1005.04
2018-07-04T10:26:33.136Z,1005.03
2018-07-04T10:27:33.208Z,1004.98
2018-07-04T10:28:33.280Z,1004.99
2018-07-04T10:29:33.352Z,1004.94
2018-07-04T10:30:33.425Z,1004.94
2018-07-04T10:31:33.497Z,1004.88
2018-07-04T10:32:33.571Z,1004.80
2018-07-04T10:33:33.642Z,1004.80
2018-07-04T10:34:33.715Z,1004.93
2018-07-04T10:35:33.789Z,1005.08
2018-07-04T10:36:33.862Z,1005.09
2018-07-04T10:37:33.935Z,1005.12
2018-07-04T10:38:34.008Z,1005.18
2018-07-04T10:39:34.082Z,1005.18
2018-07-04T10:40:34.154Z,1005.10
2018-07-04T10:41:34.227Z,1004.96
2018-07-04T10:42:34.302Z,1004.79
2018-07-04T10:43:34.375Z,1004.80
2018-07-04T10:44:34.448Z,1004.75
2018-07-04T10:45:34.524Z,1004.59
2018-07-04T10:46:34.595Z,1004.47
2018-07-04T10:47:34.668Z,1004.39
2018-07-04T10:48:34.742Z,1004.35
2018-07-04T10:49:34.814Z,1004.31
2018-07-04T10:50:34.886Z,1004.32
2018-07-04T10:51:34.960Z,1004.26
2018-07-04T10:52:35.032Z,1004.26
2018-07-04T10:53:35.104Z,1004.23
2018-07-04T10:54:35.175Z,1004.19
2018-07-04T10:55:35.372Z,1004.13
2018-07-04T10:56:35.319Z,1004.13
2018-07-04T10:57:35.389Z,1004.09
2018-07-04T10:58:35.522Z,1004.14
2018-07-04T10:59:35.531Z,1004.17
2018-07-04T11:00:35.607Z,1004.22
2018-07-04T11:01:35.677Z,1004.26
2018-07-04T11:02:35.744Z,1004.33
2018-07-04T11:03:35.815Z,1004.34
2018-07-04T11:04:35.950Z,1004.38
2018-07-04T11:05:35.957Z,1004.40
2018-07-04T11:06:36.027Z,1004.41
2018-07-04T11:07:36.097Z,1004.35
2018-07-04T11:08:36.167Z,1004.32
2018-07-04T11:09:36.237Z,1004.30
2018-07-04T11:10:36.307Z,1004.31
2018-07-04T11:11:36.379Z,1004.28
2018-07-04T11:12:36.448Z,1004.24
2018-07-04T11:13:36.519Z,1004.22
2018-07-04T11:14:36.591Z,1004.21
2018-07-04T11:15:36.656Z,1004.26
2018-07-04T11:16:36.727Z,1004.23
2018-07-04T11:17:36.796Z,1004.25
2018-07-04T11:18:36.868Z,1004.24
2018-07-04T11:19:36.937Z,1004.24
2018-07-04T11:20:37.006Z,1004.26
2018-07-04T11:21:37.079Z,1004.30
2018-07-04T11:22:37.174Z,1004.26
2018-07-04T11:23:37.215Z,1004.20
2018-07-04T11:24:37.291Z,1004.21
2018-07-04T11:25:37.358Z,1004.15
2018-07-04T11:26:37.425Z,1004.16
2018-07-04T11:27:37.494Z,1004.15
2018-07-04T11:28:37.566Z,1004.07
2018-07-04T11:29:37.633Z,1004.09
2018-07-04T11:30:37.702Z,1004.08
2018-07-04T11:31:37.773Z,1004.06
2018-07-04T11:32:37.843Z,1004.04
2018-07-04T11:33:37.912Z,1004.04
2018-07-04T11:34:37.982Z,1004.03
2018-07-04T11:35:38.052Z,1004.06
2018-07-04T11:36:38.121Z,1004.00
2018-07-04T11:37:38.189Z,1004.06
2018-07-04T11:38:38.259Z,1004.09
2018-07-04T11:39:38.329Z,1004.12
2018-07-04T11:40:38.399Z,1004.09
2018-07-04T11:41:38.469Z,1004.14
2018-07-04T11:42:38.537Z,1004.14
2018-07-04T11:43:38.605Z,1004.19
2018-07-04T11:44:38.676Z,1004.15
2018-07-04T11:45:38.744Z,1004.22
2018-07-04T11:46:38.814Z,1004.22
2018-07-04T11:47:38.884Z,1004.20
2018-07-04T11:48:38.953Z,1004.31
2018-07-04T11:49:39.081Z,1004.33
2018-07-04T11:50:39.092Z,1004.40
2018-07-04T11:51:39.190Z,1004.45
2018-07-04T11:52:39.234Z,1004.50
2018-07-04T11:53:39.300Z,1004.60
2018-07-04T11:54:39.381Z,1004.64
2018-07-04T11:55:39.441Z,1004.63
2018-07-04T11:56:39.508Z,1004.62
2018-07-04T11:57:39.578Z,1004.70
2018-07-04T11:58:39.649Z,1004.70
2018-07-04T11:59:39.718Z,1004.70
2018-07-04T12:00:39.785Z,1004.60
2018-07-04T12:01:39.874Z,1004.69
2018-07-04T12:02:39.926Z,1004.81
2018-07-04T12:03:39.996Z,1004.88
2018-07-04T12:04:40.064Z,1004.98
2018-07-04T12:05:40.134Z,1005.16
2018-07-04T12:06:40.202Z,1005.17
2018-07-04T12:07:40.271Z,1005.44
2018-07-04T12:08:40.340Z,1005.44
2018-07-04T12:09:40.427Z,1005.39
2018-07-04T12:10:40.477Z,1005.26
2018-07-04T12:11:40.548Z,1005.24
2018-07-04T12:12:40.634Z,1005.28
2018-07-04T12:13:40.682Z,1005.19